Terminal Aerodrome Forecast
Issued by NWS Charleston, WV

Home | Current Version | Previous Version | Text Only | Print | Product List | Glossary On
Versions: 1 2 3 4 5 6 7 8 9 10 11 12 13 14 15 16 17 18 19 20 21 22 23 24 25 26
984
FTUS41 KRLX 271140
TAFHTS
TAF
KHTS 271140Z 2712/2812 19003KT 2SM BR BKN025 OVC080
      TEMPO 2712/2713 5SM BR BKN035
     FM271300 21005KT P6SM BKN050
     FM280000 17003KT P6SM SHRA VCTS BKN050CB=

USA.gov is the U.S. government's official web portal to all federal, state and local government web resources and services.